sensor_id;sensor_type;location;lat;lon;timestamp;P1;durP1;ratioP1;P2;durP2;ratioP2
45206;SDS011;30950;53.086;21.576;2023-11-21T00:00:03;19.50;;;10.13;;
45206;SDS011;30950;53.086;21.576;2023-11-21T00:02:58;15.70;;;9.30;;
45206;SDS011;30950;53.086;21.576;2023-11-21T00:05:26;14.65;;;9.30;;
45206;SDS011;30950;53.086;21.576;2023-11-21T00:07:53;16.33;;;9.80;;
45206;SDS011;30950;53.086;21.576;2023-11-21T00:10:20;13.73;;;9.77;;
45206;SDS011;30950;53.086;21.576;2023-11-21T00:12:48;16.58;;;9.55;;
45206;SDS011;30950;53.086;21.576;2023-11-21T00:15:15;14.20;;;10.05;;
45206;SDS011;30950;53.086;21.576;2023-11-21T00:17:43;14.05;;;9.80;;
45206;SDS011;30950;53.086;21.576;2023-11-21T00:20:10;16.30;;;10.82;;
45206;SDS011;30950;53.086;21.576;2023-11-21T00:22:40;19.25;;;10.40;;
45206;SDS011;30950;53.086;21.576;2023-11-21T00:25:08;18.55;;;11.13;;
45206;SDS011;30950;53.086;21.576;2023-11-21T00:27:36;14.77;;;9.48;;
45206;SDS011;30950;53.086;21.576;2023-11-21T00:30:05;17.42;;;11.25;;
45206;SDS011;30950;53.086;21.576;2023-11-21T00:32:35;19.85;;;11.55;;
45206;SDS011;30950;53.086;21.576;2023-11-21T00:35:04;16.33;;;9.90;;
45206;SDS011;30950;53.086;21.576;2023-11-21T00:37:32;19.60;;;11.20;;
45206;SDS011;30950;53.086;21.576;2023-11-21T00:40:00;17.55;;;10.95;;
45206;SDS011;30950;53.086;21.576;2023-11-21T00:42:37;18.30;;;10.30;;
45206;SDS011;30950;53.086;21.576;2023-11-21T00:45:05;18.08;;;10.65;;
45206;SDS011;30950;53.086;21.576;2023-11-21T00:47:33;17.52;;;9.63;;
45206;SDS011;30950;53.086;21.576;2023-11-21T00:50:01;16.17;;;12.20;;
45206;SDS011;30950;53.086;21.576;2023-11-21T00:52:29;18.50;;;9.95;;
45206;SDS011;30950;53.086;21.576;2023-11-21T00:54:57;18.30;;;10.48;;
45206;SDS011;30950;53.086;21.576;2023-11-21T00:57:26;14.32;;;10.43;;
45206;SDS011;30950;53.086;21.576;2023-11-21T00:59:54;17.05;;;11.18;;
45206;SDS011;30950;53.086;21.576;2023-11-21T01:02:21;25.02;;;11.73;;
45206;SDS011;30950;53.086;21.576;2023-11-21T01:04:49;19.17;;;10.88;;
45206;SDS011;30950;53.086;21.576;2023-11-21T01:07:16;18.83;;;11.20;;
45206;SDS011;30950;53.086;21.576;2023-11-21T01:09:44;15.52;;;10.25;;
45206;SDS011;30950;53.086;21.576;2023-11-21T01:12:11;18.02;;;11.27;;
45206;SDS011;30950;53.086;21.576;2023-11-21T01:14:40;18.33;;;11.30;;
45206;SDS011;30950;53.086;21.576;2023-11-21T01:17:07;17.35;;;11.15;;
45206;SDS011;30950;53.086;21.576;2023-11-21T01:19:35;17.15;;;10.98;;
45206;SDS011;30950;53.086;21.576;2023-11-21T01:22:02;20.52;;;11.02;;
45206;SDS011;30950;53.086;21.576;2023-11-21T01:24:32;15.38;;;10.98;;
45206;SDS011;30950;53.086;21.576;2023-11-21T01:26:59;17.52;;;10.25;;
45206;SDS011;30950;53.086;21.576;2023-11-21T01:29:26;17.70;;;10.43;;
45206;SDS011;30950;53.086;21.576;2023-11-21T01:31:55;18.95;;;10.65;;
45206;SDS011;30950;53.086;21.576;2023-11-21T01:34:24;17.88;;;10.85;;
45206;SDS011;30950;53.086;21.576;2023-11-21T01:36:53;19.30;;;11.18;;
45206;SDS011;30950;53.086;21.576;2023-11-21T01:39:20;20.58;;;12.35;;
45206;SDS011;30950;53.086;21.576;2023-11-21T01:41:50;19.60;;;10.95;;
45206;SDS011;30950;53.086;21.576;2023-11-21T01:44:19;19.08;;;11.63;;
45206;SDS011;30950;53.086;21.576;2023-11-21T01:46:46;18.60;;;10.27;;
45206;SDS011;30950;53.086;21.576;2023-11-21T01:49:15;17.35;;;11.43;;
45206;SDS011;30950;53.086;21.576;2023-11-21T01:51:43;18.25;;;10.68;;
45206;SDS011;30950;53.086;21.576;2023-11-21T01:54:16;17.10;;;10.48;;
45206;SDS011;30950;53.086;21.576;2023-11-21T01:56:45;20.30;;;11.48;;
45206;SDS011;30950;53.086;21.576;2023-11-21T01:59:14;17.50;;;11.65;;
45206;SDS011;30950;53.086;21.576;2023-11-21T02:01:46;16.38;;;10.00;;
45206;SDS011;30950;53.086;21.576;2023-11-21T02:04:14;13.18;;;9.07;;
45206;SDS011;30950;53.086;21.576;2023-11-21T02:06:42;16.08;;;10.75;;
45206;SDS011;30950;53.086;21.576;2023-11-21T02:09:10;18.65;;;9.98;;
45206;SDS011;30950;53.086;21.576;2023-11-21T02:11:41;17.48;;;10.80;;
45206;SDS011;30950;53.086;21.576;2023-11-21T02:14:09;19.88;;;11.70;;
45206;SDS011;30950;53.086;21.576;2023-11-21T02:16:37;17.38;;;10.68;;
45206;SDS011;30950;53.086;21.576;2023-11-21T02:19:06;18.38;;;11.48;;
45206;SDS011;30950;53.086;21.576;2023-11-21T02:21:36;17.20;;;10.13;;
45206;SDS011;30950;53.086;21.576;2023-11-21T02:24:07;23.65;;;11.13;;
45206;SDS011;30950;53.086;21.576;2023-11-21T02:26:35;19.00;;;10.98;;
45206;SDS011;30950;53.086;21.576;2023-11-21T02:29:02;22.15;;;11.23;;
45206;SDS011;30950;53.086;21.576;2023-11-21T02:31:31;17.17;;;9.77;;
45206;SDS011;30950;53.086;21.576;2023-11-21T02:34:00;19.45;;;10.57;;
45206;SDS011;30950;53.086;21.576;2023-11-21T02:36:27;18.80;;;10.75;;
45206;SDS011;30950;53.086;21.576;2023-11-21T02:38:55;18.75;;;11.02;;
45206;SDS011;30950;53.086;21.576;2023-11-21T02:41:22;14.85;;;10.95;;
45206;SDS011;30950;53.086;21.576;2023-11-21T02:43:50;17.23;;;11.55;;
45206;SDS011;30950;53.086;21.576;2023-11-21T02:46:17;16.38;;;10.45;;
45206;SDS011;30950;53.086;21.576;2023-11-21T02:48:45;15.43;;;10.18;;
45206;SDS011;30950;53.086;21.576;2023-11-21T02:51:12;18.08;;;11.05;;
45206;SDS011;30950;53.086;21.576;2023-11-21T02:53:40;19.65;;;11.70;;
45206;SDS011;30950;53.086;21.576;2023-11-21T02:56:07;16.67;;;11.70;;
45206;SDS011;30950;53.086;21.576;2023-11-21T02:58:35;16.63;;;10.45;;
45206;SDS011;30950;53.086;21.576;2023-11-21T03:01:03;17.25;;;10.48;;
45206;SDS011;30950;53.086;21.576;2023-11-21T03:03:33;19.50;;;11.45;;
45206;SDS011;30950;53.086;21.576;2023-11-21T03:06:00;18.10;;;11.02;;
45206;SDS011;30950;53.086;21.576;2023-11-21T03:08:28;19.77;;;12.15;;
45206;SDS011;30950;53.086;21.576;2023-11-21T03:10:55;19.55;;;11.73;;
45206;SDS011;30950;53.086;21.576;2023-11-21T03:13:22;19.00;;;11.57;;
45206;SDS011;30950;53.086;21.576;2023-11-21T03:15:50;18.23;;;10.35;;
45206;SDS011;30950;53.086;21.576;2023-11-21T03:18:18;17.00;;;10.88;;
45206;SDS011;30950;53.086;21.576;2023-11-21T03:20:49;17.83;;;11.02;;
45206;SDS011;30950;53.086;21.576;2023-11-21T03:23:16;19.58;;;10.73;;
45206;SDS011;30950;53.086;21.576;2023-11-21T03:25:43;19.25;;;11.07;;
45206;SDS011;30950;53.086;21.576;2023-11-21T03:28:11;16.33;;;11.02;;
45206;SDS011;30950;53.086;21.576;2023-11-21T03:30:39;18.50;;;10.95;;
45206;SDS011;30950;53.086;21.576;2023-11-21T03:33:07;14.38;;;9.15;;
45206;SDS011;30950;53.086;21.576;2023-11-21T03:35:34;19.05;;;10.20;;
45206;SDS011;30950;53.086;21.576;2023-11-21T03:38:02;21.83;;;9.90;;
45206;SDS011;30950;53.086;21.576;2023-11-21T03:40:31;19.92;;;10.40;;
45206;SDS011;30950;53.086;21.576;2023-11-21T03:42:58;16.55;;;10.48;;
45206;SDS011;30950;53.086;21.576;2023-11-21T03:45:26;15.05;;;10.20;;
45206;SDS011;30950;53.086;21.576;2023-11-21T03:47:53;19.13;;;10.75;;
45206;SDS011;30950;53.086;21.576;2023-11-21T03:50:20;19.65;;;11.07;;
45206;SDS011;30950;53.086;21.576;2023-11-21T03:52:48;17.98;;;11.50;;
45206;SDS011;30950;53.086;21.576;2023-11-21T03:55:15;17.42;;;10.05;;
45206;SDS011;30950;53.086;21.576;2023-11-21T03:57:43;19.58;;;10.95;;
45206;SDS011;30950;53.086;21.576;2023-11-21T04:00:11;16.00;;;9.23;;
45206;SDS011;30950;53.086;21.576;2023-11-21T04:02:40;17.63;;;11.10;;
45206;SDS011;30950;53.086;21.576;2023-11-21T04:05:07;16.73;;;10.32;;
45206;SDS011;30950;53.086;21.576;2023-11-21T04:07:36;17.85;;;11.02;;
45206;SDS011;30950;53.086;21.576;2023-11-21T04:10:06;20.02;;;11.88;;
45206;SDS011;30950;53.086;21.576;2023-11-21T04:12:36;18.70;;;11.07;;
45206;SDS011;30950;53.086;21.576;2023-11-21T04:15:03;15.40;;;9.48;;
45206;SDS011;30950;53.086;21.576;2023-11-21T04:17:31;16.60;;;10.18;;
45206;SDS011;30950;53.086;21.576;2023-11-21T04:19:58;16.00;;;10.23;;
45206;SDS011;30950;53.086;21.576;2023-11-21T04:22:26;18.30;;;10.32;;
45206;SDS011;30950;53.086;21.576;2023-11-21T04:24:53;20.92;;;10.63;;
45206;SDS011;30950;53.086;21.576;2023-11-21T04:27:22;16.80;;;11.25;;
45206;SDS011;30950;53.086;21.576;2023-11-21T04:29:51;16.25;;;10.02;;
45206;SDS011;30950;53.086;21.576;2023-11-21T04:32:18;15.23;;;9.82;;
45206;SDS011;30950;53.086;21.576;2023-11-21T04:34:46;16.92;;;10.65;;
45206;SDS011;30950;53.086;21.576;2023-11-21T04:37:13;17.35;;;11.02;;
45206;SDS011;30950;53.086;21.576;2023-11-21T04:39:41;17.98;;;9.68;;
45206;SDS011;30950;53.086;21.576;2023-11-21T04:42:08;16.27;;;9.40;;
45206;SDS011;30950;53.086;21.576;2023-11-21T04:44:35;15.00;;;10.18;;
45206;SDS011;30950;53.086;21.576;2023-11-21T04:47:03;15.80;;;10.23;;
45206;SDS011;30950;53.086;21.576;2023-11-21T04:49:31;15.70;;;10.43;;
45206;SDS011;30950;53.086;21.576;2023-11-21T04:51:59;17.60;;;9.50;;
45206;SDS011;30950;53.086;21.576;2023-11-21T04:54:28;15.95;;;10.00;;
45206;SDS011;30950;53.086;21.576;2023-11-21T04:56:56;16.30;;;9.75;;
45206;SDS011;30950;53.086;21.576;2023-11-21T04:59:23;15.02;;;8.70;;
45206;SDS011;30950;53.086;21.576;2023-11-21T05:01:54;16.00;;;9.27;;
45206;SDS011;30950;53.086;21.576;2023-11-21T05:04:21;15.52;;;9.55;;
45206;SDS011;30950;53.086;21.576;2023-11-21T05:06:49;16.67;;;9.40;;
45206;SDS011;30950;53.086;21.576;2023-11-21T05:09:17;15.45;;;9.38;;
45206;SDS011;30950;53.086;21.576;2023-11-21T05:11:44;17.88;;;9.75;;
45206;SDS011;30950;53.086;21.576;2023-11-21T05:14:12;17.00;;;8.95;;
45206;SDS011;30950;53.086;21.576;2023-11-21T05:16:41;13.95;;;9.52;;
45206;SDS011;30950;53.086;21.576;2023-11-21T05:19:10;13.55;;;9.10;;
45206;SDS011;30950;53.086;21.576;2023-11-21T05:21:40;15.27;;;9.82;;
45206;SDS011;30950;53.086;21.576;2023-11-21T05:24:07;14.05;;;9.45;;
45206;SDS011;30950;53.086;21.576;2023-11-21T05:26:35;13.65;;;9.48;;
45206;SDS011;30950;53.086;21.576;2023-11-21T05:29:02;14.85;;;9.52;;
45206;SDS011;30950;53.086;21.576;2023-11-21T05:31:30;15.30;;;9.20;;
45206;SDS011;30950;53.086;21.576;2023-11-21T05:33:57;18.88;;;10.32;;
45206;SDS011;30950;53.086;21.576;2023-11-21T05:36:24;15.88;;;10.65;;
45206;SDS011;30950;53.086;21.576;2023-11-21T05:38:52;15.48;;;9.90;;
45206;SDS011;30950;53.086;21.576;2023-11-21T05:41:19;14.30;;;9.27;;
45206;SDS011;30950;53.086;21.576;2023-11-21T05:43:46;16.55;;;9.63;;
45206;SDS011;30950;53.086;21.576;2023-11-21T05:46:14;17.17;;;10.43;;
45206;SDS011;30950;53.086;21.576;2023-11-21T05:48:41;16.92;;;10.30;;
45206;SDS011;30950;53.086;21.576;2023-11-21T05:51:09;17.17;;;10.00;;
45206;SDS011;30950;53.086;21.576;2023-11-21T05:53:39;15.68;;;10.63;;
45206;SDS011;30950;53.086;21.576;2023-11-21T05:56:06;16.80;;;10.68;;
45206;SDS011;30950;53.086;21.576;2023-11-21T05:58:34;15.23;;;9.88;;
45206;SDS011;30950;53.086;21.576;2023-11-21T06:01:02;17.17;;;9.95;;
45206;SDS011;30950;53.086;21.576;2023-11-21T06:03:34;17.85;;;9.80;;
45206;SDS011;30950;53.086;21.576;2023-11-21T06:06:02;20.25;;;11.00;;
45206;SDS011;30950;53.086;21.576;2023-11-21T06:08:31;16.15;;;9.95;;
45206;SDS011;30950;53.086;21.576;2023-11-21T06:10:58;18.13;;;10.15;;
45206;SDS011;30950;53.086;21.576;2023-11-21T06:13:25;18.02;;;10.00;;
45206;SDS011;30950;53.086;21.576;2023-11-21T06:15:53;15.75;;;10.35;;
45206;SDS011;30950;53.086;21.576;2023-11-21T06:18:21;18.92;;;10.68;;
45206;SDS011;30950;53.086;21.576;2023-11-21T06:20:49;17.55;;;10.98;;
45206;SDS011;30950;53.086;21.576;2023-11-21T06:23:16;18.98;;;9.23;;
45206;SDS011;30950;53.086;21.576;2023-11-21T06:25:44;20.23;;;10.25;;
45206;SDS011;30950;53.086;21.576;2023-11-21T06:28:11;16.13;;;9.95;;
45206;SDS011;30950;53.086;21.576;2023-11-21T06:30:39;15.93;;;9.77;;
45206;SDS011;30950;53.086;21.576;2023-11-21T06:33:06;17.17;;;9.93;;
45206;SDS011;30950;53.086;21.576;2023-11-21T06:35:34;21.83;;;10.50;;
45206;SDS011;30950;53.086;21.576;2023-11-21T06:38:01;14.70;;;9.32;;
45206;SDS011;30950;53.086;21.576;2023-11-21T06:40:30;15.73;;;10.18;;
45206;SDS011;30950;53.086;21.576;2023-11-21T06:42:58;19.40;;;11.13;;
45206;SDS011;30950;53.086;21.576;2023-11-21T06:45:26;17.35;;;10.75;;
45206;SDS011;30950;53.086;21.576;2023-11-21T06:47:53;17.67;;;8.98;;
45206;SDS011;30950;53.086;21.576;2023-11-21T06:50:21;16.88;;;9.57;;
45206;SDS011;30950;53.086;21.576;2023-11-21T06:52:48;20.73;;;10.30;;
45206;SDS011;30950;53.086;21.576;2023-11-21T06:55:16;17.58;;;9.57;;
45206;SDS011;30950;53.086;21.576;2023-11-21T06:57:43;18.33;;;10.30;;
45206;SDS011;30950;53.086;21.576;2023-11-21T07:00:12;19.23;;;10.45;;
45206;SDS011;30950;53.086;21.576;2023-11-21T07:02:42;19.55;;;10.13;;
45206;SDS011;30950;53.086;21.576;2023-11-21T07:05:09;18.08;;;9.90;;
45206;SDS011;30950;53.086;21.576;2023-11-21T07:07:37;18.88;;;9.88;;
45206;SDS011;30950;53.086;21.576;2023-11-21T07:10:05;16.30;;;8.65;;
45206;SDS011;30950;53.086;21.576;2023-11-21T07:12:33;14.90;;;9.13;;
45206;SDS011;30950;53.086;21.576;2023-11-21T07:15:02;14.45;;;8.48;;
45206;SDS011;30950;53.086;21.576;2023-11-21T07:17:32;15.00;;;8.80;;
45206;SDS011;30950;53.086;21.576;2023-11-21T07:20:01;14.80;;;7.65;;
45206;SDS011;30950;53.086;21.576;2023-11-21T07:22:30;13.95;;;9.20;;
45206;SDS011;30950;53.086;21.576;2023-11-21T07:24:57;13.75;;;8.27;;
45206;SDS011;30950;53.086;21.576;2023-11-21T07:27:25;13.45;;;8.40;;
45206;SDS011;30950;53.086;21.576;2023-11-21T07:29:52;14.07;;;8.48;;
45206;SDS011;30950;53.086;21.576;2023-11-21T07:32:20;14.38;;;8.50;;
45206;SDS011;30950;53.086;21.576;2023-11-21T07:34:47;13.15;;;7.68;;
45206;SDS011;30950;53.086;21.576;2023-11-21T07:37:15;13.25;;;7.75;;
45206;SDS011;30950;53.086;21.576;2023-11-21T07:39:42;14.57;;;8.38;;
45206;SDS011;30950;53.086;21.576;2023-11-21T07:42:10;14.38;;;8.10;;
45206;SDS011;30950;53.086;21.576;2023-11-21T07:44:38;12.98;;;7.70;;
45206;SDS011;30950;53.086;21.576;2023-11-21T07:47:05;13.55;;;7.07;;
45206;SDS011;30950;53.086;21.576;2023-11-21T07:49:33;12.90;;;7.20;;
45206;SDS011;30950;53.086;21.576;2023-11-21T07:52:01;12.52;;;7.15;;
45206;SDS011;30950;53.086;21.576;2023-11-21T07:54:28;11.90;;;7.60;;
45206;SDS011;30950;53.086;21.576;2023-11-21T07:56:56;13.15;;;6.38;;
45206;SDS011;30950;53.086;21.576;2023-11-21T07:59:24;12.65;;;7.07;;
45206;SDS011;30950;53.086;21.576;2023-11-21T08:01:51;12.88;;;7.38;;
45206;SDS011;30950;53.086;21.576;2023-11-21T08:04:19;10.88;;;7.68;;
45206;SDS011;30950;53.086;21.576;2023-11-21T08:06:46;12.63;;;7.30;;
45206;SDS011;30950;53.086;21.576;2023-11-21T08:09:14;11.95;;;7.05;;
45206;SDS011;30950;53.086;21.576;2023-11-21T08:11:44;14.45;;;7.43;;
45206;SDS011;30950;53.086;21.576;2023-11-21T08:14:11;11.13;;;6.35;;
45206;SDS011;30950;53.086;21.576;2023-11-21T08:16:38;10.48;;;6.93;;
45206;SDS011;30950;53.086;21.576;2023-11-21T08:19:06;10.50;;;7.03;;
45206;SDS011;30950;53.086;21.576;2023-11-21T08:21:35;14.63;;;8.70;;
45206;SDS011;30950;53.086;21.576;2023-11-21T08:24:06;11.98;;;6.90;;
45206;SDS011;30950;53.086;21.576;2023-11-21T08:26:38;9.98;;;6.50;;
45206;SDS011;30950;53.086;21.576;2023-11-21T08:29:05;14.35;;;7.40;;
45206;SDS011;30950;53.086;21.576;2023-11-21T08:31:35;11.80;;;6.65;;
45206;SDS011;30950;53.086;21.576;2023-11-21T08:34:04;8.68;;;6.15;;
45206;SDS011;30950;53.086;21.576;2023-11-21T08:36:32;8.50;;;5.38;;
45206;SDS011;30950;53.086;21.576;2023-11-21T08:38:59;9.45;;;6.30;;
45206;SDS011;30950;53.086;21.576;2023-11-21T08:41:28;9.82;;;6.13;;
45206;SDS011;30950;53.086;21.576;2023-11-21T08:43:57;8.57;;;5.38;;
45206;SDS011;30950;53.086;21.576;2023-11-21T08:46:25;11.48;;;6.70;;
45206;SDS011;30950;53.086;21.576;2023-11-21T08:48:52;10.77;;;6.28;;
45206;SDS011;30950;53.086;21.576;2023-11-21T08:51:20;10.07;;;6.07;;
45206;SDS011;30950;53.086;21.576;2023-11-21T08:53:47;11.25;;;6.22;;
45206;SDS011;30950;53.086;21.576;2023-11-21T08:56:15;12.15;;;6.68;;
45206;SDS011;30950;53.086;21.576;2023-11-21T08:58:42;12.40;;;7.15;;
45206;SDS011;30950;53.086;21.576;2023-11-21T09:01:10;11.48;;;6.82;;
45206;SDS011;30950;53.086;21.576;2023-11-21T09:03:39;10.07;;;6.55;;
45206;SDS011;30950;53.086;21.576;2023-11-21T09:06:06;12.15;;;5.82;;
45206;SDS011;30950;53.086;21.576;2023-11-21T09:08:36;10.10;;;6.03;;
45206;SDS011;30950;53.086;21.576;2023-11-21T09:11:04;9.73;;;6.80;;
45206;SDS011;30950;53.086;21.576;2023-11-21T09:13:32;10.98;;;6.43;;
45206;SDS011;30950;53.086;21.576;2023-11-21T09:16:00;10.60;;;6.63;;
45206;SDS011;30950;53.086;21.576;2023-11-21T09:18:27;9.60;;;6.05;;
45206;SDS011;30950;53.086;21.576;2023-11-21T09:20:55;10.90;;;6.63;;
45206;SDS011;30950;53.086;21.576;2023-11-21T09:23:22;11.30;;;6.68;;
45206;SDS011;30950;53.086;21.576;2023-11-21T09:25:51;12.88;;;7.03;;
45206;SDS011;30950;53.086;21.576;2023-11-21T09:28:18;14.25;;;7.55;;
45206;SDS011;30950;53.086;21.576;2023-11-21T09:30:46;11.82;;;7.43;;
45206;SDS011;30950;53.086;21.576;2023-11-21T09:33:13;14.52;;;7.90;;
45206;SDS011;30950;53.086;21.576;2023-11-21T09:35:43;11.43;;;7.25;;
45206;SDS011;30950;53.086;21.576;2023-11-21T09:38:10;11.18;;;7.18;;
45206;SDS011;30950;53.086;21.576;2023-11-21T09:40:38;11.98;;;6.45;;
45206;SDS011;30950;53.086;21.576;2023-11-21T09:43:27;12.85;;;6.93;;
45206;SDS011;30950;53.086;21.576;2023-11-21T09:45:56;9.63;;;7.15;;
45206;SDS011;30950;53.086;21.576;2023-11-21T09:48:27;11.13;;;7.20;;
45206;SDS011;30950;53.086;21.576;2023-11-21T09:50:57;13.52;;;7.72;;
45206;SDS011;30950;53.086;21.576;2023-11-21T09:53:26;13.48;;;7.60;;
45206;SDS011;30950;53.086;21.576;2023-11-21T09:55:58;12.65;;;7.13;;
45206;SDS011;30950;53.086;21.576;2023-11-21T09:58:29;13.50;;;6.63;;
45206;SDS011;30950;53.086;21.576;2023-11-21T10:00:57;12.18;;;7.50;;
45206;SDS011;30950;53.086;21.576;2023-11-21T10:03:29;12.10;;;7.10;;
45206;SDS011;30950;53.086;21.576;2023-11-21T10:05:58;17.55;;;7.50;;
45206;SDS011;30950;53.086;21.576;2023-11-21T10:08:27;12.75;;;7.28;;
45206;SDS011;30950;53.086;21.576;2023-11-21T10:11:15;12.27;;;7.10;;
45206;SDS011;30950;53.086;21.576;2023-11-21T10:13:46;11.52;;;7.20;;
45206;SDS011;30950;53.086;21.576;2023-11-21T10:16:15;11.27;;;6.90;;
45206;SDS011;30950;53.086;21.576;2023-11-21T10:18:50;15.57;;;8.73;;
45206;SDS011;30950;53.086;21.576;2023-11-21T10:21:40;12.73;;;8.00;;
45206;SDS011;30950;53.086;21.576;2023-11-21T10:24:07;14.85;;;7.68;;
45206;SDS011;30950;53.086;21.576;2023-11-21T10:26:38;13.05;;;8.02;;
45206;SDS011;30950;53.086;21.576;2023-11-21T10:29:19;16.05;;;8.60;;
45206;SDS011;30950;53.086;21.576;2023-11-21T10:31:49;12.20;;;8.73;;
45206;SDS011;30950;53.086;21.576;2023-11-21T10:34:18;11.02;;;7.60;;
45206;SDS011;30950;53.086;21.576;2023-11-21T10:36:47;14.52;;;9.18;;
45206;SDS011;30950;53.086;21.576;2023-11-21T10:39:21;14.02;;;8.02;;
45206;SDS011;30950;53.086;21.576;2023-11-21T10:41:50;12.75;;;8.30;;
45206;SDS011;30950;53.086;21.576;2023-11-21T10:44:21;17.45;;;9.20;;
45206;SDS011;30950;53.086;21.576;2023-11-21T10:46:54;12.93;;;8.32;;
45206;SDS011;30950;53.086;21.576;2023-11-21T10:49:27;13.52;;;8.23;;
45206;SDS011;30950;53.086;21.576;2023-11-21T10:51:55;16.70;;;9.45;;
45206;SDS011;30950;53.086;21.576;2023-11-21T10:54:24;15.30;;;9.15;;
45206;SDS011;30950;53.086;21.576;2023-11-21T10:56:53;13.55;;;8.45;;
45206;SDS011;30950;53.086;21.576;2023-11-21T10:59:23;12.73;;;7.70;;
45206;SDS011;30950;53.086;21.576;2023-11-21T11:01:57;12.65;;;8.63;;
45206;SDS011;30950;53.086;21.576;2023-11-21T11:04:25;15.18;;;8.02;;
45206;SDS011;30950;53.086;21.576;2023-11-21T11:06:55;12.95;;;7.95;;
45206;SDS011;30950;53.086;21.576;2023-11-21T11:09:24;16.02;;;8.88;;
45206;SDS011;30950;53.086;21.576;2023-11-21T11:11:52;13.25;;;7.70;;
45206;SDS011;30950;53.086;21.576;2023-11-21T11:14:20;14.30;;;8.55;;
45206;SDS011;30950;53.086;21.576;2023-11-21T11:16:53;13.13;;;8.38;;
45206;SDS011;30950;53.086;21.576;2023-11-21T11:19:24;14.30;;;8.07;;
45206;SDS011;30950;53.086;21.576;2023-11-21T11:38:34;15.25;;;7.43;;
45206;SDS011;30950;53.086;21.576;2023-11-21T11:41:03;15.85;;;8.48;;
45206;SDS011;30950;53.086;21.576;2023-11-21T11:43:32;13.43;;;8.60;;
45206;SDS011;30950;53.086;21.576;2023-11-21T11:45:59;15.75;;;9.35;;
45206;SDS011;30950;53.086;21.576;2023-11-21T11:48:34;15.15;;;8.60;;
45206;SDS011;30950;53.086;21.576;2023-11-21T11:53:48;13.40;;;7.68;;
45206;SDS011;30950;53.086;21.576;2023-11-21T11:58:49;14.13;;;8.25;;
45206;SDS011;30950;53.086;21.576;2023-11-21T12:01:19;14.25;;;8.05;;
45206;SDS011;30950;53.086;21.576;2023-11-21T12:06:44;13.13;;;8.07;;
45206;SDS011;30950;53.086;21.576;2023-11-21T12:09:23;13.32;;;8.20;;
45206;SDS011;30950;53.086;21.576;2023-11-21T12:11:51;11.27;;;7.57;;
45206;SDS011;30950;53.086;21.576;2023-11-21T12:14:18;14.25;;;8.02;;
45206;SDS011;30950;53.086;21.576;2023-11-21T12:16:46;13.98;;;7.72;;
45206;SDS011;30950;53.086;21.576;2023-11-21T12:19:15;15.80;;;9.57;;
45206;SDS011;30950;53.086;21.576;2023-11-21T12:21:42;14.30;;;8.85;;
45206;SDS011;30950;53.086;21.576;2023-11-21T12:24:11;12.48;;;7.47;;
45206;SDS011;30950;53.086;21.576;2023-11-21T12:26:41;10.70;;;6.70;;
45206;SDS011;30950;53.086;21.576;2023-11-21T12:29:09;13.55;;;8.13;;
45206;SDS011;30950;53.086;21.576;2023-11-21T12:31:37;13.23;;;7.78;;
45206;SDS011;30950;53.086;21.576;2023-11-21T12:34:05;8.52;;;6.47;;
45206;SDS011;30950;53.086;21.576;2023-11-21T12:36:34;11.10;;;6.75;;
45206;SDS011;30950;53.086;21.576;2023-11-21T12:39:02;12.85;;;7.25;;
45206;SDS011;30950;53.086;21.576;2023-11-21T12:41:30;14.18;;;7.20;;
45206;SDS011;30950;53.086;21.576;2023-11-21T12:43:58;14.48;;;7.43;;
45206;SDS011;30950;53.086;21.576;2023-11-21T12:46:25;12.43;;;6.97;;
45206;SDS011;30950;53.086;21.576;2023-11-21T12:48:56;13.57;;;7.43;;
45206;SDS011;30950;53.086;21.576;2023-11-21T12:51:24;13.85;;;7.38;;
45206;SDS011;30950;53.086;21.576;2023-11-21T12:53:52;9.82;;;6.35;;
45206;SDS011;30950;53.086;21.576;2023-11-21T12:56:21;12.00;;;7.32;;
45206;SDS011;30950;53.086;21.576;2023-11-21T12:58:53;13.70;;;7.28;;
45206;SDS011;30950;53.086;21.576;2023-11-21T13:01:21;10.45;;;6.75;;
45206;SDS011;30950;53.086;21.576;2023-11-21T13:03:56;12.35;;;6.32;;
45206;SDS011;30950;53.086;21.576;2023-11-21T13:06:25;8.85;;;5.55;;
45206;SDS011;30950;53.086;21.576;2023-11-21T13:08:54;11.93;;;7.53;;
45206;SDS011;30950;53.086;21.576;2023-11-21T13:11:24;11.27;;;6.75;;
45206;SDS011;30950;53.086;21.576;2023-11-21T13:13:54;10.15;;;5.95;;
45206;SDS011;30950;53.086;21.576;2023-11-21T13:16:23;10.88;;;6.28;;
45206;SDS011;30950;53.086;21.576;2023-11-21T13:18:51;10.15;;;6.43;;
45206;SDS011;30950;53.086;21.576;2023-11-21T13:21:19;9.70;;;5.97;;
45206;SDS011;30950;53.086;21.576;2023-11-21T13:23:49;12.65;;;6.72;;
45206;SDS011;30950;53.086;21.576;2023-11-21T13:26:19;11.15;;;6.57;;
45206;SDS011;30950;53.086;21.576;2023-11-21T13:28:48;11.55;;;7.22;;
45206;SDS011;30950;53.086;21.576;2023-11-21T13:31:17;15.23;;;6.63;;
45206;SDS011;30950;53.086;21.576;2023-11-21T13:33:54;13.85;;;7.07;;
45206;SDS011;30950;53.086;21.576;2023-11-21T13:36:23;11.52;;;7.22;;
45206;SDS011;30950;53.086;21.576;2023-11-21T13:38:52;16.10;;;9.43;;
45206;SDS011;30950;53.086;21.576;2023-11-21T13:41:20;18.80;;;8.55;;
45206;SDS011;30950;53.086;21.576;2023-11-21T13:43:55;18.75;;;7.85;;
45206;SDS011;30950;53.086;21.576;2023-11-21T13:46:41;13.68;;;6.38;;
45206;SDS011;30950;53.086;21.576;2023-11-21T13:49:10;9.88;;;5.63;;
45206;SDS011;30950;53.086;21.576;2023-11-21T13:51:37;19.05;;;8.00;;
45206;SDS011;30950;53.086;21.576;2023-11-21T13:54:12;10.32;;;6.10;;
45206;SDS011;30950;53.086;21.576;2023-11-21T13:56:40;10.05;;;5.60;;
45206;SDS011;30950;53.086;21.576;2023-11-21T13:59:12;12.88;;;7.20;;
45206;SDS011;30950;53.086;21.576;2023-11-21T14:01:55;15.93;;;8.00;;
45206;SDS011;30950;53.086;21.576;2023-11-21T14:04:26;15.02;;;8.82;;
45206;SDS011;30950;53.086;21.576;2023-11-21T14:06:59;13.80;;;8.27;;
45206;SDS011;30950;53.086;21.576;2023-11-21T14:09:37;20.40;;;10.63;;
45206;SDS011;30950;53.086;21.576;2023-11-21T14:12:11;19.20;;;8.45;;
45206;SDS011;30950;53.086;21.576;2023-11-21T14:14:42;18.60;;;9.40;;
45206;SDS011;30950;53.086;21.576;2023-11-21T14:17:11;15.43;;;8.70;;
45206;SDS011;30950;53.086;21.576;2023-11-21T14:19:38;16.20;;;8.88;;
45206;SDS011;30950;53.086;21.576;2023-11-21T14:22:10;14.27;;;8.18;;
45206;SDS011;30950;53.086;21.576;2023-11-21T14:24:38;16.25;;;8.30;;
45206;SDS011;30950;53.086;21.576;2023-11-21T14:27:15;12.30;;;7.20;;
45206;SDS011;30950;53.086;21.576;2023-11-21T14:29:43;13.30;;;8.05;;
45206;SDS011;30950;53.086;21.576;2023-11-21T14:32:11;18.88;;;7.60;;
45206;SDS011;30950;53.086;21.576;2023-11-21T14:34:40;12.65;;;7.22;;
45206;SDS011;30950;53.086;21.576;2023-11-21T14:37:09;18.02;;;9.20;;
45206;SDS011;30950;53.086;21.576;2023-11-21T14:39:40;15.13;;;8.75;;
45206;SDS011;30950;53.086;21.576;2023-11-21T14:42:11;16.70;;;8.68;;
45206;SDS011;30950;53.086;21.576;2023-11-21T14:44:42;12.48;;;8.25;;
45206;SDS011;30950;53.086;21.576;2023-11-21T14:47:10;14.95;;;8.52;;
45206;SDS011;30950;53.086;21.576;2023-11-21T14:49:44;12.48;;;7.72;;
45206;SDS011;30950;53.086;21.576;2023-11-21T14:52:23;12.63;;;7.53;;